sensor_id;sensor_type;location;lat;lon;timestamp;P1;durP1;ratioP1;P2;durP2;ratioP2
33357;SDS011;19717;42.614;23.418;2022-10-31T00:01:15;1.77;;;1.17;;
33357;SDS011;19717;42.614;23.418;2022-10-31T00:03:41;2.45;;;0.90;;
33357;SDS011;19717;42.614;23.418;2022-10-31T00:06:07;5.43;;;1.35;;
33357;SDS011;19717;42.614;23.418;2022-10-31T00:08:33;1.20;;;0.68;;
33357;SDS011;19717;42.614;23.418;2022-10-31T00:11:00;1.13;;;0.73;;
33357;SDS011;19717;42.614;23.418;2022-10-31T00:13:26;1.85;;;0.68;;
33357;SDS011;19717;42.614;23.418;2022-10-31T00:15:52;1.13;;;0.52;;
33357;SDS011;19717;42.614;23.418;2022-10-31T00:18:18;0.73;;;0.68;;
33357;SDS011;19717;42.614;23.418;2022-10-31T00:20:44;2.15;;;1.05;;
33357;SDS011;19717;42.614;23.418;2022-10-31T00:23:10;0.80;;;0.80;;
33357;SDS011;19717;42.614;23.418;2022-10-31T00:25:38;4.88;;;1.10;;
33357;SDS011;19717;42.614;23.418;2022-10-31T00:28:05;4.63;;;0.73;;
33357;SDS011;19717;42.614;23.418;2022-10-31T00:30:31;0.80;;;0.80;;
33357;SDS011;19717;42.614;23.418;2022-10-31T00:32:57;2.85;;;1.08;;
33357;SDS011;19717;42.614;23.418;2022-10-31T00:35:23;1.35;;;0.82;;
33357;SDS011;19717;42.614;23.418;2022-10-31T00:37:50;0.50;;;0.50;;
33357;SDS011;19717;42.614;23.418;2022-10-31T00:40:16;1.10;;;0.70;;
33357;SDS011;19717;42.614;23.418;2022-10-31T00:42:42;1.00;;;0.52;;
33357;SDS011;19717;42.614;23.418;2022-10-31T00:45:08;1.45;;;1.35;;
33357;SDS011;19717;42.614;23.418;2022-10-31T00:47:34;0.70;;;0.70;;
33357;SDS011;19717;42.614;23.418;2022-10-31T00:50:00;1.52;;;1.17;;
33357;SDS011;19717;42.614;23.418;2022-10-31T00:52:26;1.92;;;0.93;;
33357;SDS011;19717;42.614;23.418;2022-10-31T00:54:52;1.73;;;0.50;;
33357;SDS011;19717;42.614;23.418;2022-10-31T00:57:18;3.83;;;1.40;;
33357;SDS011;19717;42.614;23.418;2022-10-31T00:59:45;0.93;;;0.57;;
33357;SDS011;19717;42.614;23.418;2022-10-31T01:02:11;1.58;;;0.70;;
33357;SDS011;19717;42.614;23.418;2022-10-31T01:04:37;1.45;;;0.88;;
33357;SDS011;19717;42.614;23.418;2022-10-31T01:07:03;0.45;;;0.35;;
33357;SDS011;19717;42.614;23.418;2022-10-31T01:09:29;1.90;;;1.02;;
33357;SDS011;19717;42.614;23.418;2022-10-31T01:11:55;1.45;;;1.35;;
33357;SDS011;19717;42.614;23.418;2022-10-31T01:14:21;1.73;;;1.08;;
33357;SDS011;19717;42.614;23.418;2022-10-31T01:16:47;3.17;;;1.60;;
33357;SDS011;19717;42.614;23.418;2022-10-31T01:19:13;1.08;;;1.00;;
33357;SDS011;19717;42.614;23.418;2022-10-31T01:21:39;0.90;;;0.90;;
33357;SDS011;19717;42.614;23.418;2022-10-31T01:24:05;3.20;;;1.33;;
33357;SDS011;19717;42.614;23.418;2022-10-31T01:26:31;1.10;;;0.98;;
33357;SDS011;19717;42.614;23.418;2022-10-31T01:28:59;2.92;;;1.95;;
33357;SDS011;19717;42.614;23.418;2022-10-31T01:31:27;1.20;;;1.10;;
33357;SDS011;19717;42.614;23.418;2022-10-31T01:33:54;1.75;;;0.90;;
33357;SDS011;19717;42.614;23.418;2022-10-31T01:36:22;1.50;;;1.20;;
33357;SDS011;19717;42.614;23.418;2022-10-31T01:38:48;1.98;;;1.08;;
33357;SDS011;19717;42.614;23.418;2022-10-31T01:41:16;2.67;;;0.70;;
33357;SDS011;19717;42.614;23.418;2022-10-31T01:43:56;3.40;;;1.95;;
33357;SDS011;19717;42.614;23.418;2022-10-31T01:48:55;7.30;;;1.75;;
33357;SDS011;19717;42.614;23.418;2022-10-31T01:51:22;2.90;;;1.58;;
33357;SDS011;19717;42.614;23.418;2022-10-31T01:53:49;2.00;;;1.10;;
33357;SDS011;19717;42.614;23.418;2022-10-31T01:56:16;1.92;;;1.30;;
33357;SDS011;19717;42.614;23.418;2022-10-31T01:58:44;1.67;;;1.10;;
33357;SDS011;19717;42.614;23.418;2022-10-31T02:01:11;1.50;;;0.80;;
33357;SDS011;19717;42.614;23.418;2022-10-31T02:03:38;2.03;;;1.25;;
33357;SDS011;19717;42.614;23.418;2022-10-31T02:06:05;0.75;;;0.70;;
33357;SDS011;19717;42.614;23.418;2022-10-31T02:08:32;3.92;;;1.95;;
33357;SDS011;19717;42.614;23.418;2022-10-31T02:11:00;4.88;;;1.70;;
33357;SDS011;19717;42.614;23.418;2022-10-31T02:13:27;1.90;;;1.70;;
33357;SDS011;19717;42.614;23.418;2022-10-31T02:15:55;0.95;;;0.93;;
33357;SDS011;19717;42.614;23.418;2022-10-31T02:18:21;1.08;;;0.98;;
33357;SDS011;19717;42.614;23.418;2022-10-31T02:20:51;1.23;;;1.13;;
33357;SDS011;19717;42.614;23.418;2022-10-31T02:31:50;2.58;;;1.13;;
33357;SDS011;19717;42.614;23.418;2022-10-31T02:34:22;1.10;;;0.70;;
33357;SDS011;19717;42.614;23.418;2022-10-31T02:36:53;0.65;;;0.65;;
33357;SDS011;19717;42.614;23.418;2022-10-31T02:39:26;3.40;;;1.17;;
33357;SDS011;19717;42.614;23.418;2022-10-31T02:44:44;1.30;;;1.17;;
33357;SDS011;19717;42.614;23.418;2022-10-31T02:47:12;1.88;;;1.65;;
33357;SDS011;19717;42.614;23.418;2022-10-31T02:49:48;2.15;;;1.25;;
33357;SDS011;19717;42.614;23.418;2022-10-31T02:52:29;4.20;;;1.55;;
33357;SDS011;19717;42.614;23.418;2022-10-31T02:54:56;1.75;;;1.10;;
33357;SDS011;19717;42.614;23.418;2022-10-31T02:57:26;1.90;;;1.10;;
33357;SDS011;19717;42.614;23.418;2022-10-31T02:59:55;1.60;;;1.23;;
33357;SDS011;19717;42.614;23.418;2022-10-31T03:02:27;0.95;;;0.70;;
33357;SDS011;19717;42.614;23.418;2022-10-31T03:07:32;0.90;;;0.90;;
33357;SDS011;19717;42.614;23.418;2022-10-31T03:10:03;0.98;;;0.73;;
33357;SDS011;19717;42.614;23.418;2022-10-31T03:12:33;0.80;;;0.80;;
33357;SDS011;19717;42.614;23.418;2022-10-31T03:17:37;3.65;;;0.90;;
33357;SDS011;19717;42.614;23.418;2022-10-31T03:20:04;2.45;;;1.52;;
33357;SDS011;19717;42.614;23.418;2022-10-31T03:22:31;1.73;;;1.33;;
33357;SDS011;19717;42.614;23.418;2022-10-31T03:25:00;6.65;;;2.03;;
33357;SDS011;19717;42.614;23.418;2022-10-31T03:27:27;1.98;;;1.10;;
33357;SDS011;19717;42.614;23.418;2022-10-31T03:29:56;1.83;;;1.02;;
33357;SDS011;19717;42.614;23.418;2022-10-31T03:32:24;1.50;;;0.98;;
33357;SDS011;19717;42.614;23.418;2022-10-31T03:34:52;0.90;;;0.82;;
33357;SDS011;19717;42.614;23.418;2022-10-31T03:37:19;1.33;;;0.95;;
33357;SDS011;19717;42.614;23.418;2022-10-31T03:39:46;2.10;;;1.33;;
33357;SDS011;19717;42.614;23.418;2022-10-31T03:42:24;0.63;;;0.55;;
33357;SDS011;19717;42.614;23.418;2022-10-31T03:44:57;1.42;;;0.65;;
33357;SDS011;19717;42.614;23.418;2022-10-31T03:47:23;1.20;;;1.10;;
33357;SDS011;19717;42.614;23.418;2022-10-31T03:49:49;0.85;;;0.85;;
33357;SDS011;19717;42.614;23.418;2022-10-31T03:54:43;2.92;;;0.90;;
33357;SDS011;19717;42.614;23.418;2022-10-31T03:59:58;1.17;;;1.08;;
33357;SDS011;19717;42.614;23.418;2022-10-31T04:02:27;1.42;;;1.17;;
33357;SDS011;19717;42.614;23.418;2022-10-31T04:04:54;2.65;;;1.33;;
33357;SDS011;19717;42.614;23.418;2022-10-31T04:07:21;7.05;;;2.15;;
33357;SDS011;19717;42.614;23.418;2022-10-31T04:09:50;2.97;;;1.77;;
33357;SDS011;19717;42.614;23.418;2022-10-31T04:12:17;2.90;;;1.63;;
33357;SDS011;19717;42.614;23.418;2022-10-31T04:14:45;2.17;;;1.38;;
33357;SDS011;19717;42.614;23.418;2022-10-31T04:17:12;9.43;;;3.45;;
33357;SDS011;19717;42.614;23.418;2022-10-31T04:19:39;4.32;;;1.67;;
33357;SDS011;19717;42.614;23.418;2022-10-31T04:22:05;1.75;;;1.45;;
33357;SDS011;19717;42.614;23.418;2022-10-31T04:24:31;2.35;;;1.45;;
33357;SDS011;19717;42.614;23.418;2022-10-31T04:26:57;1.95;;;1.48;;
33357;SDS011;19717;42.614;23.418;2022-10-31T04:29:23;2.65;;;1.77;;
33357;SDS011;19717;42.614;23.418;2022-10-31T04:31:50;3.20;;;1.15;;
33357;SDS011;19717;42.614;23.418;2022-10-31T04:34:16;0.80;;;0.73;;
33357;SDS011;19717;42.614;23.418;2022-10-31T04:36:42;1.45;;;1.20;;
33357;SDS011;19717;42.614;23.418;2022-10-31T04:39:08;1.48;;;0.82;;
33357;SDS011;19717;42.614;23.418;2022-10-31T04:41:34;3.42;;;1.08;;
33357;SDS011;19717;42.614;23.418;2022-10-31T04:44:00;1.40;;;0.75;;
33357;SDS011;19717;42.614;23.418;2022-10-31T04:46:26;2.65;;;1.58;;
33357;SDS011;19717;42.614;23.418;2022-10-31T04:48:52;2.08;;;1.10;;
33357;SDS011;19717;42.614;23.418;2022-10-31T04:51:18;3.90;;;1.67;;
33357;SDS011;19717;42.614;23.418;2022-10-31T04:53:44;3.58;;;1.27;;
33357;SDS011;19717;42.614;23.418;2022-10-31T04:56:10;1.45;;;0.85;;
33357;SDS011;19717;42.614;23.418;2022-10-31T04:58:36;1.30;;;0.73;;
33357;SDS011;19717;42.614;23.418;2022-10-31T05:01:02;1.15;;;1.05;;
33357;SDS011;19717;42.614;23.418;2022-10-31T05:03:28;2.92;;;1.40;;
33357;SDS011;19717;42.614;23.418;2022-10-31T05:05:54;2.00;;;1.33;;
33357;SDS011;19717;42.614;23.418;2022-10-31T05:08:20;2.28;;;1.33;;
33357;SDS011;19717;42.614;23.418;2022-10-31T05:10:46;3.60;;;1.45;;
33357;SDS011;19717;42.614;23.418;2022-10-31T05:13:12;0.65;;;0.52;;
33357;SDS011;19717;42.614;23.418;2022-10-31T05:15:40;3.00;;;2.08;;
33357;SDS011;19717;42.614;23.418;2022-10-31T05:18:06;3.90;;;1.10;;
33357;SDS011;19717;42.614;23.418;2022-10-31T05:20:32;3.50;;;1.92;;
33357;SDS011;19717;42.614;23.418;2022-10-31T05:22:59;2.08;;;1.20;;
33357;SDS011;19717;42.614;23.418;2022-10-31T05:25:26;5.07;;;1.55;;
33357;SDS011;19717;42.614;23.418;2022-10-31T05:27:53;1.75;;;1.52;;
33357;SDS011;19717;42.614;23.418;2022-10-31T05:30:20;2.67;;;1.67;;
33357;SDS011;19717;42.614;23.418;2022-10-31T05:32:47;2.03;;;1.50;;
33357;SDS011;19717;42.614;23.418;2022-10-31T05:35:15;2.05;;;1.30;;
33357;SDS011;19717;42.614;23.418;2022-10-31T05:37:41;2.88;;;1.52;;
33357;SDS011;19717;42.614;23.418;2022-10-31T05:40:08;2.30;;;1.58;;
33357;SDS011;19717;42.614;23.418;2022-10-31T05:42:35;2.35;;;1.42;;
33357;SDS011;19717;42.614;23.418;2022-10-31T05:45:01;3.47;;;1.45;;
33357;SDS011;19717;42.614;23.418;2022-10-31T05:47:27;1.20;;;1.05;;
33357;SDS011;19717;42.614;23.418;2022-10-31T05:49:53;4.82;;;1.98;;
33357;SDS011;19717;42.614;23.418;2022-10-31T05:52:19;4.30;;;1.25;;
33357;SDS011;19717;42.614;23.418;2022-10-31T05:54:45;1.90;;;0.88;;
33357;SDS011;19717;42.614;23.418;2022-10-31T05:57:11;7.38;;;1.70;;
33357;SDS011;19717;42.614;23.418;2022-10-31T05:59:37;3.20;;;2.00;;
33357;SDS011;19717;42.614;23.418;2022-10-31T06:02:03;3.58;;;1.60;;
33357;SDS011;19717;42.614;23.418;2022-10-31T06:04:29;3.17;;;1.17;;
33357;SDS011;19717;42.614;23.418;2022-10-31T06:06:56;3.30;;;2.05;;
33357;SDS011;19717;42.614;23.418;2022-10-31T06:09:22;1.60;;;1.42;;
33357;SDS011;19717;42.614;23.418;2022-10-31T06:11:48;3.70;;;1.83;;
33357;SDS011;19717;42.614;23.418;2022-10-31T06:14:14;2.08;;;1.60;;
33357;SDS011;19717;42.614;23.418;2022-10-31T06:16:40;2.20;;;1.38;;
33357;SDS011;19717;42.614;23.418;2022-10-31T06:19:06;2.25;;;1.15;;
33357;SDS011;19717;42.614;23.418;2022-10-31T06:21:32;2.40;;;1.40;;
33357;SDS011;19717;42.614;23.418;2022-10-31T06:23:58;1.38;;;1.27;;
33357;SDS011;19717;42.614;23.418;2022-10-31T06:26:24;4.65;;;2.22;;
33357;SDS011;19717;42.614;23.418;2022-10-31T06:28:50;3.65;;;2.03;;
33357;SDS011;19717;42.614;23.418;2022-10-31T06:31:16;4.95;;;1.48;;
33357;SDS011;19717;42.614;23.418;2022-10-31T06:33:42;3.95;;;1.83;;
33357;SDS011;19717;42.614;23.418;2022-10-31T06:36:09;3.88;;;2.30;;
33357;SDS011;19717;42.614;23.418;2022-10-31T06:38:35;3.97;;;2.53;;
33357;SDS011;19717;42.614;23.418;2022-10-31T06:41:02;4.97;;;2.38;;
33357;SDS011;19717;42.614;23.418;2022-10-31T06:43:29;2.35;;;2.10;;
33357;SDS011;19717;42.614;23.418;2022-10-31T06:45:55;4.22;;;2.28;;
33357;SDS011;19717;42.614;23.418;2022-10-31T06:48:21;3.90;;;1.80;;
33357;SDS011;19717;42.614;23.418;2022-10-31T06:50:47;2.67;;;2.13;;
33357;SDS011;19717;42.614;23.418;2022-10-31T06:53:13;3.22;;;1.55;;
33357;SDS011;19717;42.614;23.418;2022-10-31T06:55:40;2.90;;;1.55;;
33357;SDS011;19717;42.614;23.418;2022-10-31T06:58:06;2.65;;;0.90;;
33357;SDS011;19717;42.614;23.418;2022-10-31T07:00:32;3.42;;;2.22;;
33357;SDS011;19717;42.614;23.418;2022-10-31T07:02:59;2.63;;;1.92;;
33357;SDS011;19717;42.614;23.418;2022-10-31T07:05:26;2.80;;;1.52;;
33357;SDS011;19717;42.614;23.418;2022-10-31T07:07:55;3.63;;;1.77;;
33357;SDS011;19717;42.614;23.418;2022-10-31T07:10:22;2.25;;;1.20;;
33357;SDS011;19717;42.614;23.418;2022-10-31T07:12:53;5.22;;;1.48;;
33357;SDS011;19717;42.614;23.418;2022-10-31T07:15:19;2.03;;;1.40;;
33357;SDS011;19717;42.614;23.418;2022-10-31T07:17:45;5.15;;;2.30;;
33357;SDS011;19717;42.614;23.418;2022-10-31T07:20:11;1.95;;;1.52;;
33357;SDS011;19717;42.614;23.418;2022-10-31T07:22:37;2.42;;;1.23;;
33357;SDS011;19717;42.614;23.418;2022-10-31T07:25:03;3.10;;;1.58;;
33357;SDS011;19717;42.614;23.418;2022-10-31T07:27:34;2.55;;;1.75;;
33357;SDS011;19717;42.614;23.418;2022-10-31T07:30:00;3.45;;;1.83;;
33357;SDS011;19717;42.614;23.418;2022-10-31T07:32:27;3.03;;;1.98;;
33357;SDS011;19717;42.614;23.418;2022-10-31T07:34:53;5.00;;;2.75;;
33357;SDS011;19717;42.614;23.418;2022-10-31T07:37:19;4.15;;;2.20;;
33357;SDS011;19717;42.614;23.418;2022-10-31T07:39:45;5.95;;;2.28;;
33357;SDS011;19717;42.614;23.418;2022-10-31T07:42:11;2.15;;;1.63;;
33357;SDS011;19717;42.614;23.418;2022-10-31T07:44:37;3.25;;;2.22;;
33357;SDS011;19717;42.614;23.418;2022-10-31T07:47:03;2.72;;;2.10;;
33357;SDS011;19717;42.614;23.418;2022-10-31T07:49:29;2.97;;;2.00;;
33357;SDS011;19717;42.614;23.418;2022-10-31T07:51:55;5.15;;;1.98;;
33357;SDS011;19717;42.614;23.418;2022-10-31T07:54:21;2.85;;;1.92;;
33357;SDS011;19717;42.614;23.418;2022-10-31T07:56:47;9.00;;;1.85;;
33357;SDS011;19717;42.614;23.418;2022-10-31T07:59:13;3.83;;;2.05;;
33357;SDS011;19717;42.614;23.418;2022-10-31T08:01:39;2.35;;;1.73;;
33357;SDS011;19717;42.614;23.418;2022-10-31T08:04:05;4.90;;;2.10;;
33357;SDS011;19717;42.614;23.418;2022-10-31T08:06:31;6.60;;;3.35;;
33357;SDS011;19717;42.614;23.418;2022-10-31T08:08:57;2.55;;;1.80;;
33357;SDS011;19717;42.614;23.418;2022-10-31T08:11:23;3.90;;;1.92;;
33357;SDS011;19717;42.614;23.418;2022-10-31T08:13:49;2.83;;;1.73;;
33357;SDS011;19717;42.614;23.418;2022-10-31T08:16:15;2.90;;;1.88;;
33357;SDS011;19717;42.614;23.418;2022-10-31T08:18:41;2.47;;;1.70;;
33357;SDS011;19717;42.614;23.418;2022-10-31T08:21:07;2.65;;;1.88;;
33357;SDS011;19717;42.614;23.418;2022-10-31T08:23:33;2.55;;;1.88;;
33357;SDS011;19717;42.614;23.418;2022-10-31T08:25:59;3.42;;;2.38;;
33357;SDS011;19717;42.614;23.418;2022-10-31T08:28:25;2.05;;;1.63;;
33357;SDS011;19717;42.614;23.418;2022-10-31T08:30:51;3.85;;;2.13;;
33357;SDS011;19717;42.614;23.418;2022-10-31T08:33:18;3.63;;;2.40;;
33357;SDS011;19717;42.614;23.418;2022-10-31T08:35:44;2.33;;;1.85;;
33357;SDS011;19717;42.614;23.418;2022-10-31T08:38:11;2.78;;;2.08;;
33357;SDS011;19717;42.614;23.418;2022-10-31T08:40:37;2.58;;;2.17;;
33357;SDS011;19717;42.614;23.418;2022-10-31T08:43:10;5.05;;;2.45;;
33357;SDS011;19717;42.614;23.418;2022-10-31T08:45:36;2.63;;;1.88;;
33357;SDS011;19717;42.614;23.418;2022-10-31T08:48:03;4.25;;;2.05;;
33357;SDS011;19717;42.614;23.418;2022-10-31T08:50:31;3.47;;;2.78;;
33357;SDS011;19717;42.614;23.418;2022-10-31T08:53:01;3.38;;;2.15;;
33357;SDS011;19717;42.614;23.418;2022-10-31T08:55:28;9.02;;;2.80;;
33357;SDS011;19717;42.614;23.418;2022-10-31T08:57:54;3.60;;;2.13;;
33357;SDS011;19717;42.614;23.418;2022-10-31T09:00:21;3.58;;;2.17;;
33357;SDS011;19717;42.614;23.418;2022-10-31T09:02:47;4.20;;;2.20;;
33357;SDS011;19717;42.614;23.418;2022-10-31T09:05:13;4.95;;;2.60;;
33357;SDS011;19717;42.614;23.418;2022-10-31T09:07:39;3.72;;;2.58;;
33357;SDS011;19717;42.614;23.418;2022-10-31T09:10:05;4.20;;;2.67;;
33357;SDS011;19717;42.614;23.418;2022-10-31T09:12:31;5.70;;;3.15;;
33357;SDS011;19717;42.614;23.418;2022-10-31T09:14:57;6.72;;;2.60;;
33357;SDS011;19717;42.614;23.418;2022-10-31T09:17:25;2.92;;;2.17;;
33357;SDS011;19717;42.614;23.418;2022-10-31T09:19:51;2.40;;;2.20;;
33357;SDS011;19717;42.614;23.418;2022-10-31T09:22:17;3.80;;;2.80;;
33357;SDS011;19717;42.614;23.418;2022-10-31T09:24:43;2.70;;;2.17;;
33357;SDS011;19717;42.614;23.418;2022-10-31T09:27:09;3.70;;;2.63;;
33357;SDS011;19717;42.614;23.418;2022-10-31T09:29:36;6.65;;;2.85;;
33357;SDS011;19717;42.614;23.418;2022-10-31T09:32:02;5.82;;;3.03;;
33357;SDS011;19717;42.614;23.418;2022-10-31T09:34:28;7.22;;;2.65;;
33357;SDS011;19717;42.614;23.418;2022-10-31T09:36:54;4.10;;;2.78;;
33357;SDS011;19717;42.614;23.418;2022-10-31T09:39:20;3.42;;;2.25;;
33357;SDS011;19717;42.614;23.418;2022-10-31T09:41:58;4.57;;;2.35;;
33357;SDS011;19717;42.614;23.418;2022-10-31T09:44:48;2.33;;;1.70;;
33357;SDS011;19717;42.614;23.418;2022-10-31T09:52:32;4.32;;;2.00;;
33357;SDS011;19717;42.614;23.418;2022-10-31T09:55:04;4.93;;;2.60;;
33357;SDS011;19717;42.614;23.418;2022-10-31T09:57:35;1.88;;;1.35;;
33357;SDS011;19717;42.614;23.418;2022-10-31T10:00:05;6.32;;;1.73;;
33357;SDS011;19717;42.614;23.418;2022-10-31T10:02:39;3.85;;;1.95;;
33357;SDS011;19717;42.614;23.418;2022-10-31T10:05:13;5.88;;;2.13;;
33357;SDS011;19717;42.614;23.418;2022-10-31T10:10:27;2.75;;;1.77;;
33357;SDS011;19717;42.614;23.418;2022-10-31T10:13:05;2.40;;;1.60;;
33357;SDS011;19717;42.614;23.418;2022-10-31T10:15:37;2.72;;;2.42;;
33357;SDS011;19717;42.614;23.418;2022-10-31T10:18:15;2.80;;;1.77;;
33357;SDS011;19717;42.614;23.418;2022-10-31T10:20:47;2.17;;;1.73;;
33357;SDS011;19717;42.614;23.418;2022-10-31T10:25:47;0.75;;;0.70;;
33357;SDS011;19717;42.614;23.418;2022-10-31T10:28:26;2.58;;;1.05;;
33357;SDS011;19717;42.614;23.418;2022-10-31T10:30:59;1.08;;;0.98;;
33357;SDS011;19717;42.614;23.418;2022-10-31T10:33:31;1.17;;;1.00;;
33357;SDS011;19717;42.614;23.418;2022-10-31T10:35:59;4.30;;;1.58;;
33357;SDS011;19717;42.614;23.418;2022-10-31T10:39:08;1.65;;;1.55;;
33357;SDS011;19717;42.614;23.418;2022-10-31T10:41:19;2.45;;;1.60;;
33357;SDS011;19717;42.614;23.418;2022-10-31T10:43:48;3.47;;;2.05;;
33357;SDS011;19717;42.614;23.418;2022-10-31T10:46:26;3.28;;;1.80;;
33357;SDS011;19717;42.614;23.418;2022-10-31T10:49:17;5.13;;;1.70;;
33357;SDS011;19717;42.614;23.418;2022-10-31T10:57:22;1.70;;;1.25;;
33357;SDS011;19717;42.614;23.418;2022-10-31T10:59:53;1.27;;;1.15;;
33357;SDS011;19717;42.614;23.418;2022-10-31T11:02:22;3.13;;;1.20;;
33357;SDS011;19717;42.614;23.418;2022-10-31T11:04:50;1.77;;;1.17;;
33357;SDS011;19717;42.614;23.418;2022-10-31T11:07:17;1.10;;;1.00;;
33357;SDS011;19717;42.614;23.418;2022-10-31T11:09:43;2.42;;;1.30;;
33357;SDS011;19717;42.614;23.418;2022-10-31T11:12:10;1.67;;;0.88;;
33357;SDS011;19717;42.614;23.418;2022-10-31T11:15:16;1.83;;;1.10;;
33357;SDS011;19717;42.614;23.418;2022-10-31T11:20:41;3.25;;;1.83;;
33357;SDS011;19717;42.614;23.418;2022-10-31T11:22:48;3.17;;;1.77;;
33357;SDS011;19717;42.614;23.418;2022-10-31T11:25:21;21.95;;;1.50;;
33357;SDS011;19717;42.614;23.418;2022-10-31T11:28:04;0.95;;;0.77;;
33357;SDS011;19717;42.614;23.418;2022-10-31T11:30:35;0.95;;;0.90;;
33357;SDS011;19717;42.614;23.418;2022-10-31T11:33:01;1.20;;;1.10;;
33357;SDS011;19717;42.614;23.418;2022-10-31T11:35:29;1.80;;;1.15;;
33357;SDS011;19717;42.614;23.418;2022-10-31T11:37:56;1.10;;;1.00;;
33357;SDS011;19717;42.614;23.418;2022-10-31T11:40:25;1.92;;;0.98;;
33357;SDS011;19717;42.614;23.418;2022-10-31T11:42:51;2.28;;;1.20;;
33357;SDS011;19717;42.614;23.418;2022-10-31T11:45:33;1.67;;;0.80;;
33357;SDS011;19717;42.614;23.418;2022-10-31T11:48:02;3.10;;;1.33;;
33357;SDS011;19717;42.614;23.418;2022-10-31T11:50:34;0.77;;;0.77;;
33357;SDS011;19717;42.614;23.418;2022-10-31T11:53:02;1.08;;;0.85;;
33357;SDS011;19717;42.614;23.418;2022-10-31T11:55:33;1.08;;;0.98;;
33357;SDS011;19717;42.614;23.418;2022-10-31T11:57:59;1.40;;;0.80;;
33357;SDS011;19717;42.614;23.418;2022-10-31T12:03:03;0.77;;;0.75;;
33357;SDS011;19717;42.614;23.418;2022-10-31T12:05:30;1.13;;;1.02;;
33357;SDS011;19717;42.614;23.418;2022-10-31T12:07:58;0.80;;;0.80;;
33357;SDS011;19717;42.614;23.418;2022-10-31T12:10:27;2.58;;;1.25;;
33357;SDS011;19717;42.614;23.418;2022-10-31T12:12:57;1.58;;;0.90;;
33357;SDS011;19717;42.614;23.418;2022-10-31T12:17:55;4.75;;;0.85;;
33357;SDS011;19717;42.614;23.418;2022-10-31T12:30:19;1.73;;;1.08;;
33357;SDS011;19717;42.614;23.418;2022-10-31T12:38:07;1.75;;;0.90;;
33357;SDS011;19717;42.614;23.418;2022-10-31T12:46:01;0.60;;;0.60;;
33357;SDS011;19717;42.614;23.418;2022-10-31T12:51:15;1.75;;;0.80;;
33357;SDS011;19717;42.614;23.418;2022-10-31T12:53:49;1.38;;;0.88;;
33357;SDS011;19717;42.614;23.418;2022-10-31T12:56:24;2.45;;;1.42;;
33357;SDS011;19717;42.614;23.418;2022-10-31T12:58:59;2.97;;;1.02;;
33357;SDS011;19717;42.614;23.418;2022-10-31T13:01:30;1.20;;;0.77;;
33357;SDS011;19717;42.614;23.418;2022-10-31T13:06:33;1.83;;;1.15;;
33357;SDS011;19717;42.614;23.418;2022-10-31T13:09:01;3.30;;;1.10;;
33357;SDS011;19717;42.614;23.418;2022-10-31T13:11:32;2.08;;;1.00;;
33357;SDS011;19717;42.614;23.418;2022-10-31T13:16:30;1.13;;;0.60;;
33357;SDS011;19717;42.614;23.418;2022-10-31T13:19:16;3.65;;;0.93;;
33357;SDS011;19717;42.614;23.418;2022-10-31T13:24:35;0.70;;;0.70;;
33357;SDS011;19717;42.614;23.418;2022-10-31T13:27:03;1.35;;;0.65;;
33357;SDS011;19717;42.614;23.418;2022-10-31T13:32:04;1.45;;;0.52;;
33357;SDS011;19717;42.614;23.418;2022-10-31T13:34:34;5.53;;;1.27;;
33357;SDS011;19717;42.614;23.418;2022-10-31T13:37:22;1.35;;;0.77;;
33357;SDS011;19717;42.614;23.418;2022-10-31T13:40:12;1.65;;;1.15;;
33357;SDS011;19717;42.614;23.418;2022-10-31T13:45:18;1.40;;;1.00;;
33357;SDS011;19717;42.614;23.418;2022-10-31T13:48:45;1.77;;;0.82;;
33357;SDS011;19717;42.614;23.418;2022-10-31T13:50:41;1.08;;;0.90;;
33357;SDS011;19717;42.614;23.418;2022-10-31T13:53:19;0.80;;;0.70;;
33357;SDS011;19717;42.614;23.418;2022-10-31T13:55:49;1.20;;;0.70;;
33357;SDS011;19717;42.614;23.418;2022-10-31T14:00:45;13.77;;;4.60;;
33357;SDS011;19717;42.614;23.418;2022-10-31T14:03:18;44.38;;;17.40;;
33357;SDS011;19717;42.614;23.418;2022-10-31T14:05:51;97.05;;;35.70;;
33357;SDS011;19717;42.614;23.418;2022-10-31T14:08:18;77.57;;;26.45;;
33357;SDS011;19717;42.614;23.418;2022-10-31T14:10:52;36.38;;;14.05;;
33357;SDS011;19717;42.614;23.418;2022-10-31T14:13:24;17.50;;;6.72;;
33357;SDS011;19717;42.614;23.418;2022-10-31T14:16:06;2.75;;;1.55;;
33357;SDS011;19717;42.614;23.418;2022-10-31T14:18:41;3.53;;;1.70;;
33357;SDS011;19717;42.614;23.418;2022-10-31T14:21:13;2.45;;;1.20;;
33357;SDS011;19717;42.614;23.418;2022-10-31T14:23:40;2.20;;;1.02;;
33357;SDS011;19717;42.614;23.418;2022-10-31T14:28:52;1.92;;;0.85;;
33357;SDS011;19717;42.614;23.418;2022-10-31T14:31:35;1.52;;;0.80;;
33357;SDS011;19717;42.614;23.418;2022-10-31T14:34:23;3.13;;;1.15;;
33357;SDS011;19717;42.614;23.418;2022-10-31T14:39:18;9.07;;;2.72;;
33357;SDS011;19717;42.614;23.418;2022-10-31T14:44:42;2.15;;;1.15;;
33357;SDS011;19717;42.614;23.418;2022-10-31T14:47:22;4.28;;;2.05;;
33357;SDS011;19717;42.614;23.418;2022-10-31T14:52:31;18.45;;;7.13;;
33357;SDS011;19717;42.614;23.418;2022-10-31T14:54:57;11.88;;;5.75;;
33357;SDS011;19717;42.614;23.418;2022-10-31T14:59:51;3.60;;;1.70;;
33357;SDS011;19717;42.614;23.418;2022-10-31T15:02:20;2.13;;;0.52;;
33357;SDS011;19717;42.614;23.418;2022-10-31T15:09:42;26.48;;;1.25;;
33357;SDS011;19717;42.614;23.418;2022-10-31T15:12:25;1.40;;;1.00;;
33357;SDS011;19717;42.614;23.418;2022-10-31T15:14:52;1.30;;;0.85;;
33357;SDS011;19717;42.614;23.418;2022-10-31T15:17:18;3.80;;;1.67;;
33357;SDS011;19717;42.614;23.418;2022-10-31T15:19:45;1.27;;;1.17;;
33357;SDS011;19717;42.614;23.418;2022-10-31T15:22:15;1.30;;;1.00;;
33357;SDS011;19717;42.614;23.418;2022-10-31T15:24:42;1.10;;;0.80;;
33357;SDS011;19717;42.614;23.418;2022-10-31T15:27:17;1.80;;;1.00;;
33357;SDS011;19717;42.614;23.418;2022-10-31T15:29:50;3.78;;;1.13;;
33357;SDS011;19717;42.614;23.418;2022-10-31T15:32:21;2.05;;;0.88;;
33357;SDS011;19717;42.614;23.418;2022-10-31T15:34:48;1.00;;;0.75;;
33357;SDS011;19717;42.614;23.418;2022-10-31T15:37:16;1.60;;;0.85;;
33357;SDS011;19717;42.614;23.418;2022-10-31T15:39:42;3.15;;;1.60;;
33357;SDS011;19717;42.614;23.418;2022-10-31T15:42:20;4.45;;;1.67;;
33357;SDS011;19717;42.614;23.418;2022-10-31T15:44:51;2.03;;;1.08;;
33357;SDS011;19717;42.614;23.418;2022-10-31T15:47:19;3.00;;;1.13;;
33357;SDS011;19717;42.614;23.418;2022-10-31T15:49:50;2.60;;;1.15;;
33357;SDS011;19717;42.614;23.418;2022-10-31T15:55:00;5.38;;;1.40;;
33357;SDS011;19717;42.614;23.418;2022-10-31T15:57:27;0.55;;;0.52;;
33357;SDS011;19717;42.614;23.418;2022-10-31T15:59:53;1.35;;;0.63;;
33357;SDS011;19717;42.614;23.418;2022-10-31T16:02:21;0.50;;;0.50;;
33357;SDS011;19717;42.614;23.418;2022-10-31T16:04:58;0.60;;;0.40;;
33357;SDS011;19717;42.614;23.418;2022-10-31T16:07:25;0.95;;;0.50;;
33357;SDS011;19717;42.614;23.418;2022-10-31T16:12:44;0.60;;;0.45;;
33357;SDS011;19717;42.614;23.418;2022-10-31T16:15:15;0.32;;;0.32;;
33357;SDS011;19717;42.614;23.418;2022-10-31T16:17:46;2.53;;;1.08;;
33357;SDS011;19717;42.614;23.418;2022-10-31T16:20:26;0.97;;;0.40;;
33357;SDS011;19717;42.614;23.418;2022-10-31T16:22:52;0.95;;;0.50;;
33357;SDS011;19717;42.614;23.418;2022-10-31T16:25:26;0.30;;;0.30;;
33357;SDS011;19717;42.614;23.418;2022-10-31T16:27:53;0.47;;;0.47;;
33357;SDS011;19717;42.614;23.418;2022-10-31T16:31:11;1.77;;;0.52;;
33357;SDS011;19717;42.614;23.418;2022-10-31T16:33:29;1.58;;;0.30;;